createdAt,value
2019-03-08T00:00:05.347Z,99432.96
2019-03-08T00:02:33.820Z,99428.72
2019-03-08T00:05:02.259Z,99426.17
2019-03-08T00:07:30.655Z,99441.88
2019-03-08T00:09:59.064Z,99428.70
2019-03-08T00:12:27.482Z,99429.13
2019-03-08T00:14:55.906Z,99455.05
2019-03-08T00:17:24.316Z,99441.45
2019-03-08T00:19:52.730Z,99438.48
2019-03-08T00:22:24.126Z,99458.89
2019-03-08T00:24:52.518Z,99452.09
2019-03-08T00:27:20.930Z,99454.22
2019-03-08T00:29:49.361Z,99451.66
2019-03-08T00:32:17.752Z,99468.24
2019-03-08T00:34:46.167Z,99469.09
2019-03-08T00:37:14.659Z,99471.61
2019-03-08T00:39:43.081Z,99483.94
2019-03-08T00:42:11.624Z,99495.84
2019-03-08T00:44:40.033Z,99485.23
2019-03-08T00:47:08.523Z,99491.58
2019-03-08T00:49:37.001Z,99507.72
2019-03-08T00:52:05.482Z,99496.25
2019-03-08T00:54:33.879Z,99508.11
2019-03-08T00:57:02.278Z,99500.04
2019-03-08T00:59:30.662Z,99517.45
2019-03-08T01:01:59.156Z,99523.43
2019-03-08T01:04:27.707Z,99515.78
2019-03-08T01:06:56.187Z,99506.44
2019-03-08T01:09:24.580Z,99526.41
2019-03-08T01:11:53.012Z,99520.03
2019-03-08T01:14:21.448Z,99540.00
2019-03-08T01:16:49.916Z,99537.88
2019-03-08T01:19:18.409Z,99532.77
2019-03-08T01:21:46.813Z,99534.90
2019-03-08T01:24:15.255Z,99540.00
2019-03-08T01:26:43.647Z,99540.00
2019-03-08T01:29:12.130Z,99541.73
2019-03-08T01:31:40.539Z,99558.69
2019-03-08T01:34:08.933Z,99583.75
2019-03-08T01:36:37.439Z,99576.11
2019-03-08T01:39:07.675Z,99562.09
2019-03-08T01:41:36.127Z,99551.47
2019-03-08T01:44:04.622Z,99565.48
2019-03-08T01:46:33.068Z,99562.05
2019-03-08T01:49:01.504Z,99568.88
2019-03-08T01:51:29.927Z,99575.25
2019-03-08T01:53:58.363Z,99568.03
2019-03-08T01:56:26.826Z,99586.25
2019-03-08T01:58:55.253Z,99603.24
2019-03-08T02:01:23.658Z,99595.59
2019-03-08T02:03:52.147Z,99585.41
2019-03-08T02:06:20.695Z,99599.41
2019-03-08T02:08:49.084Z,99607.91
2019-03-08T02:11:17.588Z,99591.34
2019-03-08T02:13:46.008Z,99588.79
2019-03-08T02:16:14.442Z,99590.48
2019-03-08T02:18:42.849Z,99610.44
2019-03-08T02:21:11.270Z,99599.81
2019-03-08T02:23:39.687Z,99607.03
2019-03-08T02:26:08.159Z,99614.63
2019-03-08T02:28:36.566Z,99606.13
2019-03-08T02:31:08.206Z,99610.79
2019-03-08T02:33:36.627Z,99609.50
2019-03-08T02:36:05.093Z,99615.87
2019-03-08T02:38:33.507Z,99611.59
2019-03-08T02:43:29.335Z,99615.45
2019-03-08T02:45:57.833Z,99618.85
2019-03-08T02:48:26.234Z,99623.95
2019-03-08T02:50:54.676Z,99640.52
2019-03-08T02:53:23.072Z,99629.05
2019-03-08T02:55:51.488Z,99637.95
2019-03-08T02:58:19.894Z,99631.16
2019-03-08T03:00:48.300Z,99644.75
2019-03-08T03:03:17.546Z,99636.67
2019-03-08T03:05:46.023Z,99642.61
2019-03-08T03:08:14.447Z,99645.16
2019-03-08T03:10:42.916Z,99650.20
2019-03-08T03:13:11.410Z,99670.99
2019-03-08T03:15:39.883Z,99686.27
2019-03-08T03:18:08.272Z,99721.04
2019-03-08T03:20:37.466Z,99710.77
2019-03-08T03:23:05.871Z,99727.48
2019-03-08T03:25:34.288Z,99738.00
2019-03-08T03:28:02.788Z,99733.27
2019-03-08T03:30:31.254Z,99728.16
2019-03-08T03:32:59.731Z,99736.63
2019-03-08T03:35:28.401Z,99742.15
2019-03-08T03:37:56.794Z,99745.12
2019-03-08T03:40:25.196Z,99739.17
2019-03-08T03:42:53.678Z,99755.70
2019-03-08T03:45:22.323Z,99755.36
2019-03-08T03:47:50.801Z,99755.28
2019-03-08T03:50:19.671Z,99766.67
2019-03-08T03:52:48.081Z,99780.56
2019-03-08T03:55:17.726Z,99775.44
2019-03-08T03:57:46.260Z,99781.33
2019-03-08T04:00:22.602Z,99780.86
2019-03-08T04:02:51.357Z,99784.24
2019-03-08T04:05:19.993Z,99786.31
2019-03-08T04:07:48.448Z,99787.13
2019-03-08T04:10:17.919Z,99798.98
2019-03-08T04:12:46.387Z,99801.49
2019-03-08T04:15:19.692Z,99795.84
2019-03-08T04:17:48.392Z,99800.08
2019-03-08T04:20:18.163Z,99813.22
2019-03-08T04:22:46.714Z,99816.16
2019-03-08T04:25:15.267Z,99823.80
2019-03-08T04:27:43.726Z,99827.20
2019-03-08T04:30:40.063Z,99830.96
2019-03-08T04:33:08.472Z,99837.73
2019-03-08T04:35:36.876Z,99842.42
2019-03-08T04:38:05.284Z,99843.66
2019-03-08T04:40:33.703Z,99845.36
2019-03-08T04:43:02.138Z,99844.52
2019-03-08T04:45:30.529Z,99856.84
2019-03-08T04:47:58.939Z,99855.56
2019-03-08T04:50:27.330Z,99856.44
2019-03-08T04:52:55.750Z,99869.11
2019-03-08T04:55:24.146Z,99864.02
2019-03-08T04:57:52.564Z,99869.07
2019-03-08T05:00:22.326Z,99872.89
2019-03-08T05:02:50.744Z,99874.16
2019-03-08T05:05:19.183Z,99877.09
2019-03-08T05:07:47.737Z,99877.53
2019-03-08T05:10:17.709Z,99881.72
2019-03-08T05:12:47.694Z,99880.91
2019-03-08T05:15:17.252Z,99884.69
2019-03-08T05:17:45.635Z,99885.13
2019-03-08T05:20:14.128Z,99887.66
2019-03-08T05:22:42.585Z,99894.47
2019-03-08T05:25:13.407Z,99901.24
2019-03-08T05:27:41.890Z,99905.93
2019-03-08T05:30:15.511Z,99914.84
2019-03-08T05:32:45.403Z,99914.81
2019-03-08T05:35:14.731Z,99919.41
2019-03-08T05:37:43.236Z,99924.91
2019-03-08T05:40:13.861Z,99927.04
2019-03-08T05:42:42.323Z,99937.63
2019-03-08T05:45:12.388Z,99944.41
2019-03-08T05:47:40.781Z,99952.48
2019-03-08T05:50:10.519Z,99966.02
2019-03-08T05:52:39.004Z,99963.06
2019-03-08T05:55:09.610Z,99964.77
2019-03-08T05:57:38.006Z,99972.42
2019-03-08T06:00:16.244Z,99980.88
2019-03-08T06:02:44.682Z,99983.02
2019-03-08T06:05:13.166Z,99991.90
2019-03-08T06:07:41.552Z,100000.37
2019-03-08T06:10:33.579Z,99999.13
2019-03-08T06:13:03.741Z,100012.30
2019-03-08T06:15:32.229Z,100019.92
2019-03-08T06:18:00.700Z,100024.62
2019-03-08T06:20:29.116Z,100050.50
2019-03-08T06:22:57.656Z,100048.06
2019-03-08T06:25:26.335Z,100060.77
2019-03-08T06:27:54.825Z,100060.77
2019-03-08T06:30:23.368Z,100070.11
2019-03-08T06:32:52.056Z,100070.53
2019-03-08T06:35:20.509Z,100086.66
2019-03-08T06:37:48.957Z,100094.75
2019-03-08T06:40:17.502Z,100090.52
2019-03-08T06:42:45.908Z,100107.08
2019-03-08T06:45:18.181Z,100114.70
2019-03-08T06:47:51.186Z,100113.88
2019-03-08T06:50:19.691Z,100121.06
2019-03-08T06:52:48.093Z,100126.98
2019-03-08T06:55:17.580Z,100134.66
2019-03-08T06:57:46.044Z,100140.12
2019-03-08T07:00:35.286Z,100145.19
2019-03-08T07:03:05.248Z,100159.20
2019-03-08T07:05:33.668Z,100166.00
2019-03-08T07:08:05.857Z,100174.05
2019-03-08T07:10:34.266Z,100181.25
2019-03-08T07:13:03.843Z,100188.05
2019-03-08T07:15:32.528Z,100197.42
2019-03-08T07:18:00.988Z,100197.48
2019-03-08T07:20:33.855Z,100208.53
2019-03-08T07:23:11.125Z,100217.02
2019-03-08T07:25:41.386Z,100227.64
2019-03-08T07:28:20.024Z,100233.14
2019-03-08T07:30:57.656Z,100234.84
2019-03-08T07:33:37.001Z,100237.86
2019-03-08T07:36:11.874Z,100245.52
2019-03-08T07:38:54.171Z,100263.80
2019-03-08T07:41:28.861Z,100271.39
2019-03-08T07:44:02.488Z,100280.73
2019-03-08T07:46:48.861Z,100290.09
2019-03-08T07:49:18.938Z,100299.88
2019-03-08T07:51:57.545Z,100300.81
2019-03-08T07:54:27.580Z,100310.63
2019-03-08T07:57:00.164Z,100309.75
2019-03-08T07:59:39.175Z,100309.36
2019-03-08T08:02:09.581Z,100316.60
2019-03-08T08:04:48.626Z,100321.75
2019-03-08T08:07:21.682Z,100328.99
2019-03-08T08:10:05.032Z,100342.59
2019-03-08T08:12:50.477Z,100343.92
2019-03-08T08:15:20.537Z,100357.54
2019-03-08T08:17:59.437Z,100349.48
2019-03-08T08:20:49.040Z,100358.89
2019-03-08T08:23:19.160Z,100366.58
2019-03-08T08:26:04.357Z,100372.94
2019-03-08T08:28:34.422Z,100366.64
2019-03-08T08:31:10.546Z,100376.43
2019-03-08T08:33:57.131Z,100385.36
2019-03-08T08:36:29.813Z,100406.14
2019-03-08T08:39:12.099Z,100396.84
2019-03-08T08:41:42.178Z,100407.86
2019-03-08T08:44:12.223Z,100409.10
2019-03-08T08:46:45.104Z,100411.27
2019-03-08T08:49:17.867Z,100416.91
2019-03-08T08:51:47.907Z,100432.27
2019-03-08T08:54:24.044Z,100430.11
2019-03-08T08:56:56.608Z,100435.56
2019-03-08T08:59:26.684Z,100433.84
2019-03-08T09:01:56.751Z,100440.23
2019-03-08T09:04:26.835Z,100445.30
2019-03-08T09:06:59.647Z,100437.77
2019-03-08T09:09:41.804Z,100448.38
2019-03-08T09:12:27.263Z,100447.66
2019-03-08T09:15:13.783Z,100458.37
2019-03-08T09:17:52.861Z,100459.25
2019-03-08T09:20:28.688Z,100459.64
2019-03-08T09:22:58.765Z,100471.65
2019-03-08T09:25:40.788Z,100469.22
2019-03-08T09:28:25.815Z,100466.25
2019-03-08T09:31:01.976Z,100492.91
2019-03-08T09:33:37.849Z,100471.98
2019-03-08T09:36:10.671Z,100476.35
2019-03-08T09:38:43.843Z,100484.41
2019-03-08T09:41:20.033Z,100495.84
2019-03-08T09:43:53.398Z,100490.06
2019-03-08T09:46:23.562Z,100500.85
2019-03-08T09:48:56.358Z,100500.08
2019-03-08T09:51:27.103Z,100515.50
2019-03-08T09:53:57.138Z,100512.97
2019-03-08T09:56:43.426Z,100515.59
2019-03-08T09:59:13.541Z,100527.85
2019-03-08T10:01:59.861Z,100518.78
2019-03-08T10:04:29.905Z,100515.31
2019-03-08T10:06:59.950Z,100529.80
2019-03-08T10:09:30.020Z,100537.99
2019-03-08T10:12:00.243Z,100534.20
2019-03-08T10:14:30.359Z,100541.43
2019-03-08T10:17:00.577Z,100541.01
2019-03-08T10:19:42.832Z,100562.15
2019-03-08T10:22:12.873Z,100542.59
2019-03-08T10:24:42.916Z,100552.03
2019-03-08T10:27:16.143Z,100557.52
2019-03-08T10:29:46.203Z,100568.58
2019-03-08T10:32:16.260Z,100565.09
2019-03-08T10:34:52.279Z,100566.00
2019-03-08T10:37:22.359Z,100575.05
2019-03-08T10:40:01.507Z,100574.03
2019-03-08T10:42:37.346Z,100581.78
2019-03-08T10:45:09.453Z,100593.64
2019-03-08T10:47:39.534Z,100592.81
2019-03-08T10:50:15.964Z,100602.15
2019-03-08T10:52:51.981Z,100600.84
2019-03-08T10:55:28.059Z,100608.58
2019-03-08T10:57:58.100Z,100618.75
2019-03-08T11:00:31.240Z,100621.80
2019-03-08T11:03:07.302Z,100630.72
2019-03-08T11:05:40.076Z,100640.53
2019-03-08T11:08:29.565Z,100629.03
2019-03-08T11:11:06.645Z,100639.73
2019-03-08T11:13:53.076Z,100636.01
2019-03-08T11:16:29.536Z,100646.35
2019-03-08T11:19:15.747Z,100644.73
2019-03-08T11:22:00.588Z,100642.23
2019-03-08T11:24:46.529Z,100648.30
2019-03-08T11:27:33.195Z,100662.75
2019-03-08T11:30:21.814Z,100653.35
2019-03-08T11:32:54.860Z,100668.69
2019-03-08T11:35:25.016Z,100656.81
2019-03-08T11:38:07.254Z,100666.05
2019-03-08T11:40:39.986Z,100664.10
2019-03-08T11:43:10.130Z,100670.73
2019-03-08T11:45:51.745Z,100667.39
2019-03-08T11:48:38.304Z,100671.84
2019-03-08T11:51:26.477Z,100669.88
2019-03-08T11:53:56.693Z,100667.72
2019-03-08T11:56:35.814Z,100675.10
2019-03-08T11:59:11.492Z,100677.48
2019-03-08T12:01:59.129Z,100684.66
2019-03-08T12:04:47.606Z,100699.09
2019-03-08T12:07:17.687Z,100690.44
2019-03-08T12:10:00.147Z,100696.54
2019-03-08T12:12:30.426Z,100676.70
2019-03-08T12:15:03.295Z,100675.26
2019-03-08T12:17:45.581Z,100671.31
2019-03-08T12:20:15.744Z,100672.09
2019-03-08T12:23:02.082Z,100669.92
2019-03-08T12:25:32.168Z,100667.66
2019-03-08T12:28:18.190Z,100675.13
2019-03-08T12:30:48.279Z,100675.81
2019-03-08T12:33:29.965Z,100674.10
2019-03-08T12:36:14.967Z,100667.64
2019-03-08T12:38:45.064Z,100673.59
2019-03-08T12:41:17.517Z,100677.87
2019-03-08T12:44:03.523Z,100674.98
2019-03-08T12:46:37.016Z,100675.93
2019-03-08T12:49:07.075Z,100670.81
2019-03-08T12:51:37.167Z,100670.67
2019-03-08T12:54:07.349Z,100672.83
2019-03-08T12:56:37.436Z,100678.50
2019-03-08T12:59:07.753Z,100665.05
2019-03-08T13:01:40.324Z,100671.66
2019-03-08T13:04:13.369Z,100670.14
2019-03-08T13:06:49.235Z,100666.55
2019-03-08T13:09:19.575Z,100672.94
2019-03-08T13:11:48.020Z,100680.50
2019-03-08T13:14:16.498Z,100668.09
2019-03-08T13:16:44.927Z,100673.20
2019-03-08T13:19:13.349Z,100682.09
2019-03-08T13:21:41.851Z,100681.06
2019-03-08T13:24:10.513Z,100671.05
2019-03-08T13:26:39.003Z,100676.06
2019-03-08T13:29:07.517Z,100671.54
2019-03-08T13:31:35.915Z,100671.91
2019-03-08T13:34:04.381Z,100689.71
2019-03-08T13:36:33.054Z,100684.23
2019-03-08T13:39:01.659Z,100687.03
2019-03-08T13:41:30.075Z,100687.27
2019-03-08T13:44:00.604Z,100684.52
2019-03-08T13:46:28.949Z,100683.59
2019-03-08T13:48:57.447Z,100692.84
2019-03-08T13:51:26.140Z,100687.73
2019-03-08T13:53:54.875Z,100695.36
2019-03-08T13:56:23.275Z,100691.98
2019-03-08T13:58:51.698Z,100694.09
2019-03-08T14:01:20.102Z,100696.59
2019-03-08T14:03:48.537Z,100693.98
2019-03-08T14:06:16.932Z,100690.55
2019-03-08T14:08:45.643Z,100693.08
2019-03-08T14:11:14.212Z,100693.12
2019-03-08T14:13:42.689Z,100703.37
2019-03-08T14:16:11.117Z,100694.44
2019-03-08T14:18:39.531Z,100695.47
2019-03-08T14:21:08.030Z,100691.44
2019-03-08T14:23:36.841Z,100690.70
2019-03-08T14:26:05.927Z,100691.10
2019-03-08T14:28:34.719Z,100700.23
2019-03-08T14:31:04.855Z,100688.63
2019-03-08T14:33:34.386Z,100685.22
2019-03-08T14:36:06.019Z,100681.47
2019-03-08T14:38:37.086Z,100688.75
2019-03-08T14:41:09.874Z,100684.37
2019-03-08T14:43:39.950Z,100683.50
2019-03-08T14:46:13.056Z,100690.70
2019-03-08T14:48:42.555Z,100685.59
2019-03-08T14:51:13.061Z,100684.36
2019-03-08T14:53:41.615Z,100683.20
2019-03-08T14:56:10.027Z,100678.37
2019-03-08T14:58:40.269Z,100680.28
2019-03-08T15:01:08.622Z,100685.39
2019-03-08T15:03:43.318Z,100695.09
2019-03-08T15:06:07.321Z,100690.69
2019-03-08T15:08:35.773Z,100690.47
2019-03-08T15:11:04.300Z,100688.72
2019-03-08T15:13:32.711Z,100686.55
2019-03-08T15:16:02.110Z,100687.71
2019-03-08T15:18:31.442Z,100685.14
2019-03-08T15:21:00.811Z,100687.28
2019-03-08T15:23:29.324Z,100692.44
2019-03-08T15:25:57.757Z,100685.77
2019-03-08T15:28:26.587Z,100693.49
2019-03-08T15:30:55.132Z,100700.33
2019-03-08T15:33:23.590Z,100702.42
2019-03-08T15:35:52.027Z,100701.72
2019-03-08T15:38:20.500Z,100697.02
2019-03-08T15:40:48.976Z,100689.41
2019-03-08T15:43:17.437Z,100699.59
2019-03-08T15:45:46.251Z,100700.69
2019-03-08T15:48:15.937Z,100708.63
2019-03-08T15:50:46.752Z,100705.20
2019-03-08T15:53:14.775Z,100704.78
2019-03-08T15:55:52.526Z,100699.61
2019-03-08T15:58:13.648Z,100696.59
2019-03-08T16:00:42.159Z,100693.48
2019-03-08T16:03:10.672Z,100695.18
2019-03-08T16:05:39.166Z,100690.91
2019-03-08T16:08:07.565Z,100689.59
2019-03-08T16:10:36.126Z,100685.70
2019-03-08T16:13:04.662Z,100687.41
2019-03-08T16:15:33.148Z,100689.03
2019-03-08T16:18:01.560Z,100690.72
2019-03-08T16:20:29.963Z,100684.71
2019-03-08T16:22:58.499Z,100687.25
2019-03-08T16:25:27.010Z,100686.78
2019-03-08T16:27:55.530Z,100683.77
2019-03-08T16:30:39.858Z,100688.83
2019-03-08T16:33:17.706Z,100684.94
2019-03-08T16:36:04.298Z,100675.53
2019-03-08T16:38:34.233Z,100667.44
2019-03-08T16:41:04.297Z,100671.68
2019-03-08T16:43:34.112Z,100666.11
2019-03-08T16:46:06.936Z,100662.19
2019-03-08T16:48:40.307Z,100664.70
2019-03-08T16:51:20.459Z,100648.50
2019-03-08T16:54:03.661Z,100653.16
2019-03-08T16:56:45.416Z,100642.89
2019-03-08T16:59:33.601Z,100641.16
2019-03-08T17:02:15.424Z,100639.84
2019-03-08T17:04:54.118Z,100644.88
2019-03-08T17:07:36.436Z,100653.78
2019-03-08T17:10:07.461Z,100660.57
2019-03-08T17:12:52.442Z,100665.68
2019-03-08T17:15:38.719Z,100666.10
2019-03-08T17:18:25.118Z,100667.80
2019-03-08T17:20:57.941Z,100666.94
2019-03-08T17:23:28.099Z,100666.06
2019-03-08T17:26:16.444Z,100666.06
2019-03-08T17:29:02.944Z,100669.88
2019-03-08T17:31:33.000Z,100667.31
2019-03-08T17:34:19.135Z,100677.14
2019-03-08T17:37:01.595Z,100680.97
2019-03-08T17:39:43.609Z,100688.19
2019-03-08T17:42:30.189Z,100697.13
2019-03-08T17:45:09.214Z,100698.27
2019-03-08T17:47:39.292Z,100711.28
2019-03-08T17:50:12.516Z,100719.22
2019-03-08T17:52:54.565Z,100724.67
2019-03-08T17:55:30.685Z,100722.36
2019-03-08T17:58:13.118Z,100720.85
2019-03-08T18:00:43.245Z,100712.61
2019-03-08T18:03:15.805Z,100708.32
2019-03-08T18:05:48.588Z,100716.42
2019-03-08T18:08:36.736Z,100724.52
2019-03-08T18:11:22.831Z,100707.93
2019-03-08T18:13:58.859Z,100710.43
2019-03-08T18:16:32.090Z,100718.92
2019-03-08T18:19:02.177Z,100714.59
2019-03-08T18:21:37.757Z,100712.84
2019-03-08T18:24:08.076Z,100713.68
2019-03-08T18:26:38.148Z,100708.13
2019-03-08T18:29:11.205Z,100715.88
2019-03-08T18:31:53.389Z,100710.77
2019-03-08T18:34:29.341Z,100707.36
2019-03-08T18:37:02.096Z,100700.06
2019-03-08T18:39:35.125Z,100704.75
2019-03-08T18:42:05.216Z,100704.30
2019-03-08T18:44:52.736Z,100701.31
2019-03-08T18:47:28.286Z,100696.62
2019-03-08T18:50:04.108Z,100702.56
2019-03-08T18:52:34.167Z,100696.20
2019-03-08T18:55:10.033Z,100695.34
2019-03-08T18:57:56.264Z,100694.91
2019-03-08T19:00:28.794Z,100697.84
2019-03-08T19:03:07.396Z,100700.79
2019-03-08T19:05:43.294Z,100706.70
2019-03-08T19:08:19.103Z,100710.08
2019-03-08T19:11:01.328Z,100711.75
2019-03-08T19:13:31.367Z,100704.01
2019-03-08T19:16:03.916Z,100708.22
2019-03-08T19:18:36.970Z,100710.36
2019-03-08T19:21:18.927Z,100705.67
2019-03-08T19:23:51.834Z,100699.71
2019-03-08T19:26:24.846Z,100199.36
2019-03-08T19:28:54.971Z,100698.88
2019-03-08T19:31:40.128Z,100693.78
2019-03-08T19:34:10.176Z,100691.67
2019-03-08T19:36:52.452Z,100690.39
2019-03-08T19:39:38.593Z,100680.69
2019-03-08T19:42:14.847Z,100675.59
2019-03-08T19:44:44.950Z,100159.77
2019-03-08T19:47:31.457Z,100680.30
2019-03-08T19:50:01.516Z,100668.43
2019-03-08T19:52:47.767Z,100669.70
2019-03-08T19:55:23.943Z,100670.13
2019-03-08T19:58:10.414Z,100659.06
2019-03-08T20:00:49.471Z,100663.38
2019-03-08T20:03:19.629Z,100665.98
2019-03-08T20:05:49.787Z,100651.95
2019-03-08T20:08:25.680Z,100653.22
2019-03-08T20:10:58.760Z,100654.45
2019-03-08T20:13:34.521Z,100654.45
2019-03-08T20:16:07.464Z,100647.63
2019-03-08T20:18:43.180Z,100647.16
2019-03-08T20:21:22.162Z,100646.35
2019-03-08T20:24:01.121Z,100651.90
2019-03-08T20:26:36.939Z,100646.80
2019-03-08T20:29:09.506Z,100649.34
2019-03-08T20:31:55.981Z,100650.17
2019-03-08T20:34:31.809Z,100642.89
2019-03-08T20:37:07.686Z,100639.88
2019-03-08T20:39:39.776Z,100643.17
2019-03-08T20:42:10.057Z,100636.35
2019-03-08T20:44:46.108Z,100636.33
2019-03-08T20:47:19.100Z,100627.77
2019-03-08T20:49:47.529Z,100625.16
2019-03-08T20:52:16.200Z,100629.44
2019-03-08T20:54:44.618Z,100625.61
2019-03-08T20:57:13.124Z,100615.80
2019-03-08T20:59:41.538Z,100615.80
2019-03-08T21:02:10.047Z,100606.42
2019-03-08T21:04:38.566Z,100600.05
2019-03-08T21:07:07.127Z,100598.77
2019-03-08T21:09:35.626Z,100589.41
2019-03-08T21:12:04.107Z,100594.06
2019-03-08T21:14:32.594Z,100590.24
2019-03-08T21:17:01.006Z,100587.22
2019-03-08T21:19:29.448Z,100583.39
2019-03-08T21:21:57.926Z,100583.37
2019-03-08T21:24:26.415Z,100575.72
2019-03-08T21:26:54.834Z,100575.25
2019-03-08T21:29:23.333Z,100579.44
2019-03-08T21:31:51.838Z,100586.63
2019-03-08T21:34:20.589Z,100587.51
2019-03-08T21:36:49.056Z,100582.41
2019-03-08T21:39:17.559Z,100584.91
2019-03-08T21:41:45.960Z,100580.22
2019-03-08T21:44:14.412Z,100578.50
2019-03-08T21:46:42.875Z,100571.69
2019-03-08T21:49:12.079Z,100567.89
2019-03-08T21:51:40.546Z,100550.88
2019-03-08T21:54:08.987Z,100547.49
2019-03-08T21:56:37.389Z,100547.47
2019-03-08T21:59:05.896Z,100533.78
2019-03-08T22:01:34.475Z,100527.36
2019-03-08T22:04:04.525Z,100522.64
2019-03-08T22:06:32.953Z,100519.22
2019-03-08T22:09:05.763Z,100516.64
2019-03-08T22:11:35.975Z,100521.72
2019-03-08T22:14:04.696Z,100514.91
2019-03-08T22:16:33.134Z,100514.91
2019-03-08T22:19:01.534Z,100507.28
2019-03-08T22:21:30.062Z,100499.66
2019-03-08T22:23:58.648Z,100495.41
2019-03-08T22:26:27.101Z,100493.33
2019-03-08T22:28:55.513Z,100486.12
2019-03-08T22:31:23.937Z,100490.83
2019-03-08T22:33:52.389Z,100481.98
2019-03-08T22:36:20.794Z,100473.94
2019-03-08T22:38:49.299Z,100479.48
2019-03-08T22:41:17.889Z,100468.42
2019-03-08T22:43:46.326Z,100473.55
2019-03-08T22:46:14.734Z,100472.71
2019-03-08T22:48:43.139Z,100467.66
2019-03-08T22:51:11.565Z,100462.58
2019-03-08T22:53:39.952Z,100455.39
2019-03-08T22:56:08.385Z,100457.50
2019-03-08T22:58:36.773Z,100445.59
2019-03-08T23:01:08.910Z,100454.07
2019-03-08T23:03:37.397Z,100455.74
2019-03-08T23:06:06.063Z,100442.93
2019-03-08T23:08:34.481Z,100431.80
2019-03-08T23:11:03.038Z,100433.42
2019-03-08T23:13:31.489Z,100437.59
2019-03-08T23:16:00.024Z,100438.43
2019-03-08T23:18:28.546Z,100425.70
2019-03-08T23:20:57.803Z,100416.36
2019-03-08T23:23:26.251Z,100401.07
2019-03-08T23:25:54.730Z,100401.48
2019-03-08T23:28:24.775Z,100395.53
2019-03-08T23:31:11.283Z,100384.89
2019-03-08T23:33:39.700Z,100382.33
2019-03-08T23:36:08.130Z,100380.17
2019-03-08T23:38:36.593Z,100370.81
2019-03-08T23:41:05.148Z,100365.30
2019-03-08T23:43:33.922Z,100367.02
2019-03-08T23:46:02.350Z,100357.26
2019-03-08T23:48:32.877Z,100350.03
2019-03-08T23:51:01.308Z,100348.77
2019-03-08T23:53:29.710Z,100347.98
2019-03-08T23:55:58.129Z,100335.67
2019-03-08T23:58:26.527Z,100328.90
